createdAt,value
2024-01-06T00:01:16.919Z,46.80
2024-01-06T00:03:44.387Z,46.00
2024-01-06T00:06:14.211Z,48.00
2024-01-06T00:08:41.403Z,48.80
2024-01-06T00:11:08.339Z,54.80
2024-01-06T00:13:35.263Z,44.80
2024-01-06T00:16:02.507Z,55.00
2024-01-06T00:18:29.558Z,57.40
2024-01-06T00:20:57.460Z,48.80
2024-01-06T00:23:24.775Z,44.20
2024-01-06T00:25:51.739Z,50.20
2024-01-06T00:28:18.591Z,51.60
2024-01-06T00:30:45.759Z,49.50
2024-01-06T00:33:13.977Z,46.30
2024-01-06T00:35:41.671Z,45.50
2024-01-06T00:38:08.530Z,49.10
2024-01-06T00:40:35.373Z,43.00
2024-01-06T00:43:02.289Z,46.30
2024-01-06T00:45:29.184Z,50.50
2024-01-06T00:47:56.290Z,46.30
2024-01-06T00:50:23.176Z,49.80
2024-01-06T00:52:53.582Z,50.40
2024-01-06T00:55:21.228Z,60.10
2024-01-06T00:57:48.180Z,53.70
2024-01-06T01:00:15.407Z,59.60
2024-01-06T01:02:42.461Z,64.90
2024-01-06T01:05:09.677Z,55.50
2024-01-06T01:07:37.082Z,54.50
2024-01-06T01:10:04.405Z,55.50
2024-01-06T01:12:31.457Z,66.10
2024-01-06T01:14:58.642Z,72.90
2024-01-06T01:17:26.227Z,71.20
2024-01-06T01:19:53.270Z,78.30
2024-01-06T01:22:20.208Z,81.40
2024-01-06T01:24:47.134Z,94.30
2024-01-06T01:27:14.275Z,76.90
2024-01-06T01:29:41.210Z,68.90
2024-01-06T01:32:08.295Z,71.50
2024-01-06T01:34:35.907Z,67.60
2024-01-06T01:37:03.049Z,83.90
2024-01-06T01:39:30.008Z,67.70
2024-01-06T01:41:57.326Z,65.30
2024-01-06T01:44:24.243Z,70.30
2024-01-06T01:46:52.224Z,67.70
2024-01-06T01:49:19.240Z,69.60
2024-01-06T01:51:46.495Z,68.20
2024-01-06T01:54:13.497Z,64.30
2024-01-06T01:56:42.710Z,53.50
2024-01-06T01:59:13.434Z,59.20
2024-01-06T02:01:42.170Z,53.60
2024-01-06T02:04:09.940Z,54.20
2024-01-06T02:06:37.093Z,56.20
2024-01-06T02:09:04.085Z,57.40
2024-01-06T02:11:31.066Z,58.50
2024-01-06T02:13:58.111Z,56.90
2024-01-06T02:16:25.034Z,59.70
2024-01-06T02:18:52.041Z,62.10
2024-01-06T02:21:19.193Z,59.30
2024-01-06T02:23:46.064Z,63.60
2024-01-06T02:26:14.517Z,59.40
2024-01-06T02:28:41.999Z,56.90
2024-01-06T02:31:09.093Z,57.50
2024-01-06T02:33:36.068Z,57.90
2024-01-06T02:36:03.205Z,57.60
2024-01-06T02:38:30.136Z,59.20
2024-01-06T02:40:56.972Z,61.60
2024-01-06T02:43:24.661Z,58.40
2024-01-06T02:45:51.718Z,56.40
2024-01-06T02:48:18.831Z,60.20
2024-01-06T02:50:45.829Z,58.20
2024-01-06T02:53:13.966Z,59.80
2024-01-06T02:55:41.380Z,59.60
2024-01-06T02:58:08.241Z,58.70
2024-01-06T03:00:35.277Z,56.80
2024-01-06T03:03:02.313Z,60.00
2024-01-06T03:05:29.254Z,53.90
2024-01-06T03:07:56.150Z,55.80
2024-01-06T03:10:23.028Z,54.30
2024-01-06T03:12:49.986Z,47.50
2024-01-06T03:15:19.376Z,56.90
2024-01-06T03:17:46.293Z,51.10
2024-01-06T03:20:13.265Z,51.80
2024-01-06T03:22:40.143Z,49.90
2024-01-06T03:25:07.524Z,49.10
2024-01-06T03:27:34.757Z,54.60
2024-01-06T03:30:01.867Z,49.40
2024-01-06T03:32:29.836Z,52.10
2024-01-06T03:34:56.960Z,50.50
2024-01-06T03:37:23.961Z,55.00
2024-01-06T03:39:51.070Z,48.50
2024-01-06T03:42:17.939Z,51.80
2024-01-06T03:44:44.961Z,49.10
2024-01-06T03:47:11.836Z,45.60
2024-01-06T03:49:38.880Z,46.10
2024-01-06T03:52:06.357Z,49.00
2024-01-06T03:54:33.302Z,47.10
2024-01-06T03:57:00.192Z,51.00
2024-01-06T03:59:27.034Z,46.60
2024-01-06T04:01:53.925Z,45.70
2024-01-06T04:04:21.627Z,47.60
2024-01-06T04:06:48.724Z,51.30
2024-01-06T04:09:18.596Z,53.80
2024-01-06T04:11:46.049Z,54.40
2024-01-06T04:14:12.862Z,51.20
2024-01-06T04:16:39.930Z,60.00
2024-01-06T04:19:08.937Z,52.30
2024-01-06T04:21:35.953Z,53.30
2024-01-06T04:24:02.837Z,66.30
2024-01-06T04:26:29.650Z,60.20
2024-01-06T04:28:56.577Z,56.60
2024-01-06T04:31:23.604Z,60.10
2024-01-06T04:33:50.773Z,58.90
2024-01-06T04:36:17.818Z,51.60
2024-01-06T04:38:44.650Z,54.00
2024-01-06T04:41:11.569Z,56.90
2024-01-06T04:43:38.476Z,56.10
2024-01-06T04:46:05.309Z,53.00
2024-01-06T04:48:32.310Z,50.10
2024-01-06T04:50:59.529Z,52.40
2024-01-06T04:53:26.353Z,49.60
2024-01-06T04:55:53.280Z,49.50
2024-01-06T04:58:20.189Z,52.30
2024-01-06T05:00:47.436Z,55.40
2024-01-06T05:03:14.501Z,54.30
2024-01-06T05:05:41.460Z,53.10
2024-01-06T05:08:08.450Z,56.70
2024-01-06T05:10:35.299Z,55.20
2024-01-06T05:13:02.168Z,50.00
2024-01-06T05:15:29.174Z,46.30
2024-01-06T05:17:56.623Z,56.00
2024-01-06T05:20:24.157Z,56.30
2024-01-06T05:22:51.012Z,60.50
2024-01-06T05:25:18.025Z,61.40
2024-01-06T05:27:44.886Z,163.50
2024-01-06T05:30:12.397Z,99.40
2024-01-06T05:32:39.829Z,95.50
2024-01-06T05:35:07.398Z,77.90
2024-01-06T05:37:34.723Z,63.50
2024-01-06T05:40:04.976Z,57.20
2024-01-06T05:42:32.094Z,53.90
2024-01-06T05:44:59.038Z,48.30
2024-01-06T05:47:26.013Z,55.50
2024-01-06T05:49:52.957Z,52.10
2024-01-06T05:52:19.856Z,47.00
2024-01-06T05:54:46.909Z,53.00
2024-01-06T05:57:13.890Z,51.20
2024-01-06T05:59:41.742Z,53.80
2024-01-06T06:02:08.630Z,52.30
2024-01-06T06:04:35.604Z,57.10
2024-01-06T06:07:03.602Z,55.50
2024-01-06T06:09:30.679Z,59.10
2024-01-06T06:11:57.802Z,57.60
2024-01-06T06:14:27.491Z,48.60
2024-01-06T06:16:56.103Z,69.00
2024-01-06T06:19:23.058Z,64.50
2024-01-06T06:21:49.973Z,69.20
2024-01-06T06:24:16.858Z,66.30
2024-01-06T06:26:43.729Z,66.70
2024-01-06T06:29:10.603Z,72.10
2024-01-06T06:31:37.789Z,65.20
2024-01-06T06:34:08.690Z,67.60
2024-01-06T06:36:36.775Z,66.30
2024-01-06T06:39:05.491Z,67.90
2024-01-06T06:41:32.550Z,64.70
2024-01-06T06:43:59.537Z,60.30
2024-01-06T06:46:26.529Z,71.10
2024-01-06T06:48:53.368Z,67.20
2024-01-06T06:51:23.085Z,65.40
2024-01-06T06:53:51.282Z,67.80
2024-01-06T06:56:18.766Z,64.40
2024-01-06T06:58:45.674Z,64.80
2024-01-06T07:01:15.611Z,61.60
2024-01-06T07:03:42.934Z,62.20
2024-01-06T07:06:12.609Z,89.80
2024-01-06T07:08:39.693Z,380.50
2024-01-06T07:11:06.526Z,318.50
2024-01-06T07:13:33.472Z,145.50
2024-01-06T07:16:10.702Z,132.60
2024-01-06T07:18:42.997Z,90.20
2024-01-06T07:21:10.133Z,78.60
2024-01-06T07:23:36.971Z,74.30
2024-01-06T07:26:04.065Z,70.90
2024-01-06T07:28:30.959Z,72.30
2024-01-06T07:30:57.944Z,76.10
2024-01-06T07:33:26.258Z,71.20
2024-01-06T07:35:53.231Z,76.80
2024-01-06T07:38:20.761Z,68.30
2024-01-06T07:40:47.676Z,74.90
2024-01-06T07:43:16.521Z,78.00
2024-01-06T07:45:43.656Z,72.70
2024-01-06T07:48:10.743Z,75.70
2024-01-06T07:50:37.809Z,78.20
2024-01-06T07:53:04.815Z,77.50
2024-01-06T07:55:32.584Z,75.50
2024-01-06T07:57:59.598Z,76.90
2024-01-06T08:00:26.853Z,75.80
2024-01-06T08:02:53.704Z,69.80
2024-01-06T08:05:20.761Z,68.00
2024-01-06T08:07:47.670Z,65.00
2024-01-06T08:10:14.655Z,60.10
2024-01-06T08:12:41.585Z,66.00
2024-01-06T08:15:10.590Z,72.20
2024-01-06T08:17:38.709Z,73.80
2024-01-06T08:20:06.237Z,80.80
2024-01-06T08:22:33.114Z,80.10
2024-01-06T08:25:00.171Z,103.50
2024-01-06T08:27:28.460Z,89.80
2024-01-06T08:29:55.482Z,83.50
2024-01-06T08:32:22.275Z,84.30
2024-01-06T08:34:49.286Z,79.50
2024-01-06T08:37:16.304Z,88.60
2024-01-06T08:39:43.179Z,85.30
2024-01-06T08:42:10.173Z,89.30
2024-01-06T08:44:37.020Z,139.40
2024-01-06T08:47:04.185Z,179.20
2024-01-06T08:49:31.615Z,138.20
2024-01-06T08:51:59.388Z,197.30
2024-01-06T08:54:26.496Z,122.40
2024-01-06T08:56:53.382Z,81.10
2024-01-06T08:59:21.450Z,64.30
2024-01-06T09:01:50.471Z,65.30
2024-01-06T09:04:18.127Z,60.30
2024-01-06T09:06:45.138Z,62.90
2024-01-06T09:09:12.177Z,60.40
2024-01-06T09:11:40.053Z,61.50
2024-01-06T09:14:06.949Z,61.40
2024-01-06T09:16:33.825Z,64.90
2024-01-06T09:19:00.824Z,62.70
2024-01-06T09:21:27.850Z,66.40
2024-01-06T09:23:54.711Z,66.20
2024-01-06T09:26:21.585Z,67.00
2024-01-06T09:28:49.160Z,71.70
2024-01-06T09:31:16.211Z,69.70
2024-01-06T09:33:43.472Z,83.40
2024-01-06T09:36:13.540Z,94.20
2024-01-06T09:38:40.546Z,98.10
2024-01-06T09:41:07.584Z,108.80
2024-01-06T09:43:34.989Z,107.20
2024-01-06T09:46:33.180Z,92.80
2024-01-06T09:49:00.335Z,98.40
2024-01-06T09:51:28.598Z,110.00
2024-01-06T09:54:04.324Z,98.80
2024-01-06T09:56:31.394Z,94.50
2024-01-06T09:58:58.373Z,82.70
2024-01-06T10:01:25.842Z,71.70
2024-01-06T10:03:53.089Z,76.70
2024-01-06T10:06:21.643Z,70.50
2024-01-06T10:08:52.670Z,71.20
2024-01-06T10:11:22.330Z,57.70
2024-01-06T10:13:52.402Z,57.90
2024-01-06T10:16:20.472Z,55.50
2024-01-06T10:18:52.456Z,57.00
2024-01-06T10:21:23.678Z,53.50
2024-01-06T10:23:52.441Z,51.30
2024-01-06T10:26:19.636Z,59.00
2024-01-06T10:28:46.568Z,54.90
2024-01-06T10:31:15.242Z,59.10
2024-01-06T10:33:42.582Z,60.50
2024-01-06T10:36:10.984Z,72.80
2024-01-06T10:38:37.815Z,65.70
2024-01-06T10:41:09.205Z,71.00
2024-01-06T10:43:39.445Z,79.70
2024-01-06T10:46:06.928Z,84.00
2024-01-06T10:48:36.232Z,86.10
2024-01-06T10:51:03.882Z,94.70
2024-01-06T10:53:31.829Z,91.00
2024-01-06T10:55:59.499Z,96.40
2024-01-06T10:58:26.989Z,90.60
2024-01-06T11:00:54.326Z,99.60
2024-01-06T11:03:23.321Z,101.00
2024-01-06T11:05:51.157Z,100.80
2024-01-06T11:08:21.760Z,94.80
2024-01-06T11:10:49.144Z,96.40
2024-01-06T11:13:22.051Z,98.10
2024-01-06T11:15:53.420Z,90.80
2024-01-06T11:18:40.393Z,86.30
2024-01-06T11:21:15.387Z,87.50
2024-01-06T11:23:42.548Z,87.80
2024-01-06T11:26:10.874Z,84.00
2024-01-06T11:28:47.393Z,99.80
2024-01-06T11:31:15.318Z,101.10
2024-01-06T11:33:46.034Z,98.10
2024-01-06T11:36:16.082Z,83.40
2024-01-06T11:38:43.000Z,95.00
2024-01-06T11:41:12.760Z,67.00
2024-01-06T11:43:41.843Z,75.10
2024-01-06T11:46:09.705Z,59.40
2024-01-06T11:48:38.038Z,61.30
2024-01-06T11:51:05.982Z,55.40
2024-01-06T11:53:33.533Z,57.50
2024-01-06T11:56:01.646Z,59.10
2024-01-06T11:58:29.966Z,53.40
2024-01-06T12:00:58.806Z,54.70
2024-01-06T12:03:27.844Z,53.20
2024-01-06T12:06:04.180Z,53.60
2024-01-06T12:08:31.271Z,48.40
2024-01-06T12:11:06.435Z,60.50
2024-01-06T12:13:33.629Z,96.00
2024-01-06T12:16:03.647Z,53.40
2024-01-06T12:18:30.966Z,52.00
2024-01-06T12:20:57.854Z,78.00
2024-01-06T12:23:26.860Z,49.70
2024-01-06T12:25:54.939Z,48.50
2024-01-06T12:28:21.859Z,50.50
2024-01-06T12:30:49.942Z,53.00
2024-01-06T12:33:17.185Z,54.90
2024-01-06T12:35:44.899Z,50.10
2024-01-06T12:38:11.876Z,47.00
2024-01-06T12:40:39.217Z,50.20
2024-01-06T12:43:07.148Z,49.10
2024-01-06T12:45:34.392Z,49.30
2024-01-06T12:48:01.558Z,50.50
2024-01-06T12:50:28.491Z,48.10
2024-01-06T12:52:55.523Z,46.00
2024-01-06T12:55:22.405Z,46.50
2024-01-06T12:57:49.374Z,48.60
2024-01-06T13:00:17.667Z,53.50
2024-01-06T13:02:44.588Z,52.10
2024-01-06T13:05:11.639Z,43.30
2024-01-06T13:07:39.535Z,39.70
2024-01-06T13:10:07.019Z,46.00
2024-01-06T13:12:34.048Z,41.00
2024-01-06T13:15:02.265Z,38.80
2024-01-06T13:17:29.426Z,42.10
2024-01-06T13:19:57.714Z,36.90
2024-01-06T13:22:24.741Z,37.70
2024-01-06T13:24:54.221Z,40.20
2024-01-06T13:27:22.155Z,38.80
2024-01-06T13:29:49.906Z,37.70
2024-01-06T13:32:16.911Z,37.20
2024-01-06T13:34:43.908Z,39.20
2024-01-06T13:37:11.895Z,35.70
2024-01-06T13:39:39.011Z,33.70
2024-01-06T13:42:06.423Z,39.40
2024-01-06T13:44:33.348Z,41.60
2024-01-06T13:47:00.313Z,43.90
2024-01-06T13:49:27.260Z,49.20
2024-01-06T13:51:54.284Z,36.50
2024-01-06T13:54:22.675Z,40.00
2024-01-06T13:56:49.549Z,31.90
2024-01-06T13:59:18.005Z,29.10
2024-01-06T14:01:46.336Z,27.60
2024-01-06T14:04:14.388Z,30.00
2024-01-06T14:06:41.502Z,29.40
2024-01-06T14:09:08.367Z,31.10
2024-01-06T14:11:35.537Z,40.30
2024-01-06T14:14:03.233Z,38.70
2024-01-06T14:16:30.154Z,28.20
2024-01-06T14:18:57.663Z,27.00
2024-01-06T14:21:24.646Z,26.10
2024-01-06T14:23:51.529Z,29.00
2024-01-06T14:26:21.396Z,25.60
2024-01-06T14:28:49.664Z,28.40
2024-01-06T14:31:16.949Z,26.20
2024-01-06T14:33:44.230Z,26.30
2024-01-06T14:36:11.242Z,24.50
2024-01-06T14:38:38.341Z,27.50
2024-01-06T14:41:05.234Z,22.60
2024-01-06T14:43:32.170Z,22.90
2024-01-06T14:45:59.204Z,25.50
2024-01-06T14:48:26.461Z,22.60
2024-01-06T14:50:53.516Z,23.90
2024-01-06T14:53:22.094Z,28.80
2024-01-06T14:55:50.452Z,27.80
2024-01-06T14:58:17.763Z,24.10
2024-01-06T15:00:44.702Z,22.60
2024-01-06T15:03:12.510Z,25.40
2024-01-06T15:05:39.582Z,24.80
2024-01-06T15:08:06.686Z,22.70
2024-01-06T15:10:34.689Z,22.90
2024-01-06T15:13:01.808Z,25.20
2024-01-06T15:15:28.947Z,24.30
2024-01-06T15:17:55.998Z,24.10
2024-01-06T15:20:24.361Z,22.70
2024-01-06T15:22:51.438Z,19.80
2024-01-06T15:25:19.424Z,21.20
2024-01-06T15:27:46.451Z,19.70
2024-01-06T15:30:13.815Z,24.70
2024-01-06T15:32:43.154Z,21.90
2024-01-06T15:35:11.360Z,23.60
2024-01-06T15:37:38.487Z,22.80
2024-01-06T15:40:06.149Z,21.70
2024-01-06T15:42:33.674Z,21.50
2024-01-06T15:45:00.764Z,21.40
2024-01-06T15:47:27.636Z,19.60
2024-01-06T15:49:54.632Z,19.80
2024-01-06T15:52:22.967Z,18.70
2024-01-06T15:54:50.923Z,18.70
2024-01-06T15:57:18.102Z,19.10
2024-01-06T15:59:45.310Z,19.60
2024-01-06T16:02:12.459Z,19.40
2024-01-06T16:04:39.488Z,20.50
2024-01-06T16:07:07.452Z,19.10
2024-01-06T16:09:34.446Z,19.50
2024-01-06T16:12:01.333Z,17.70
2024-01-06T16:14:31.375Z,18.40
2024-01-06T16:17:01.371Z,18.70
2024-01-06T16:19:29.444Z,20.50
2024-01-06T16:22:07.402Z,20.80
2024-01-06T16:24:42.226Z,28.40
2024-01-06T16:27:09.423Z,34.10
2024-01-06T16:29:37.269Z,27.10
2024-01-06T16:32:04.817Z,30.90
2024-01-06T16:34:32.250Z,34.70
2024-01-06T16:36:59.186Z,31.30
2024-01-06T16:39:28.121Z,35.40
2024-01-06T16:41:58.582Z,29.50
2024-01-06T16:44:25.936Z,27.30
2024-01-06T16:46:52.894Z,23.90
2024-01-06T16:49:22.589Z,24.10
2024-01-06T16:51:49.623Z,26.70
2024-01-06T16:54:32.251Z,21.50
2024-01-06T16:57:01.450Z,23.10
2024-01-06T16:59:28.792Z,24.10
2024-01-06T17:01:55.928Z,26.20
2024-01-06T17:04:23.170Z,23.10
2024-01-06T17:06:50.172Z,26.20
2024-01-06T17:09:17.107Z,25.20
2024-01-06T17:11:43.969Z,29.30
2024-01-06T17:14:13.007Z,30.50
2024-01-06T17:16:40.061Z,32.20
2024-01-06T17:19:07.145Z,36.90
2024-01-06T17:21:34.436Z,30.70
2024-01-06T17:24:01.408Z,24.70
2024-01-06T17:26:28.740Z,30.30
2024-01-06T17:28:56.281Z,28.80
2024-01-06T17:31:24.920Z,25.40
2024-01-06T17:33:52.027Z,21.90
2024-01-06T17:36:19.169Z,20.10
2024-01-06T17:38:46.147Z,20.30
2024-01-06T17:41:14.217Z,21.90
2024-01-06T17:43:42.333Z,20.40
2024-01-06T17:46:09.979Z,20.70
2024-01-06T17:48:37.418Z,21.80
2024-01-06T17:51:05.627Z,16.30
2024-01-06T17:53:32.451Z,16.10
2024-01-06T17:55:59.452Z,17.00
2024-01-06T17:58:27.553Z,19.60
2024-01-06T18:00:54.704Z,18.90
2024-01-06T18:03:21.804Z,18.00
2024-01-06T18:05:48.782Z,16.50
2024-01-06T18:08:15.856Z,18.40
2024-01-06T18:10:43.884Z,16.60
2024-01-06T18:13:10.856Z,17.30
2024-01-06T18:15:37.769Z,16.00
2024-01-06T18:18:05.242Z,17.40
2024-01-06T18:20:33.242Z,14.30
2024-01-06T18:23:00.657Z,13.70
2024-01-06T18:25:27.627Z,14.20
2024-01-06T18:27:54.526Z,11.00
2024-01-06T18:30:21.722Z,15.30
2024-01-06T18:32:48.889Z,14.00
2024-01-06T18:35:16.290Z,14.60
2024-01-06T18:37:43.265Z,14.90
2024-01-06T18:40:11.083Z,15.10
2024-01-06T18:42:37.993Z,18.10
2024-01-06T18:45:05.313Z,13.00
2024-01-06T18:47:32.557Z,18.60
2024-01-06T18:50:00.783Z,20.10
2024-01-06T18:52:29.092Z,20.40
2024-01-06T18:54:56.317Z,14.20
2024-01-06T18:57:25.510Z,16.00
2024-01-06T18:59:53.075Z,15.10
2024-01-06T19:02:20.583Z,15.00
2024-01-06T19:04:50.893Z,16.50
2024-01-06T19:07:19.752Z,17.60
2024-01-06T19:09:47.760Z,18.30
2024-01-06T19:12:15.756Z,15.20
2024-01-06T19:14:42.735Z,14.50
2024-01-06T19:17:09.984Z,15.80
2024-01-06T19:19:42.877Z,15.80
2024-01-06T19:22:09.989Z,15.50
2024-01-06T19:24:43.097Z,14.80
2024-01-06T19:27:12.490Z,17.90
2024-01-06T19:29:47.791Z,19.10
2024-01-06T19:32:16.406Z,14.40
2024-01-06T19:34:43.937Z,15.10
2024-01-06T19:37:11.142Z,19.80
2024-01-06T19:39:39.677Z,32.20
2024-01-06T19:42:08.150Z,44.80
2024-01-06T19:44:35.437Z,44.10
2024-01-06T19:47:02.544Z,116.40
2024-01-06T19:49:30.089Z,22.90
2024-01-06T19:51:57.668Z,34.70
2024-01-06T19:54:25.020Z,21.40
2024-01-06T19:57:09.166Z,59.80
2024-01-06T19:59:37.183Z,43.40
2024-01-06T20:02:04.417Z,49.00
2024-01-06T20:04:40.017Z,42.10
2024-01-06T20:07:08.756Z,31.10
2024-01-06T20:09:36.434Z,17.60
2024-01-06T20:12:05.232Z,21.40
2024-01-06T20:14:36.295Z,19.80
2024-01-06T20:17:10.498Z,19.60
2024-01-06T20:19:39.305Z,20.70
2024-01-06T20:22:07.807Z,17.90
2024-01-06T20:24:35.601Z,16.90
2024-01-06T20:27:05.016Z,19.70
2024-01-06T20:29:32.118Z,21.90
2024-01-06T20:31:59.260Z,18.70
2024-01-06T20:34:29.910Z,19.10
2024-01-06T20:36:57.962Z,16.80
2024-01-06T20:39:27.949Z,16.70
2024-01-06T20:41:55.834Z,16.40
2024-01-06T20:44:23.991Z,16.40
2024-01-06T20:46:51.887Z,16.70
2024-01-06T20:49:21.960Z,16.40
2024-01-06T20:51:49.096Z,15.70
2024-01-06T20:54:16.418Z,15.40
2024-01-06T20:56:50.723Z,15.40
2024-01-06T20:59:18.753Z,15.20
2024-01-06T21:01:46.317Z,14.80
2024-01-06T21:04:14.062Z,16.40
2024-01-06T21:06:42.500Z,15.60
2024-01-06T21:09:10.570Z,16.00
2024-01-06T21:11:39.216Z,15.50
2024-01-06T21:14:07.636Z,14.80
2024-01-06T21:16:34.529Z,15.90
2024-01-06T21:19:01.528Z,16.90
2024-01-06T21:21:28.521Z,17.40
2024-01-06T21:23:55.423Z,14.20
2024-01-06T21:26:25.675Z,15.90
2024-01-06T21:28:54.616Z,17.50
2024-01-06T21:31:24.861Z,20.10
2024-01-06T21:33:51.864Z,19.40
2024-01-06T21:36:19.861Z,17.50
2024-01-06T21:38:47.780Z,19.50
2024-01-06T21:41:14.753Z,15.80
2024-01-06T21:43:42.203Z,16.70
2024-01-06T21:46:09.620Z,18.60
2024-01-06T21:48:37.286Z,20.90
2024-01-06T21:51:05.241Z,19.80
2024-01-06T21:53:34.307Z,19.00
2024-01-06T21:56:01.238Z,15.60
2024-01-06T21:58:28.140Z,17.90
2024-01-06T22:00:57.823Z,17.00
2024-01-06T22:03:24.844Z,16.80
2024-01-06T22:05:52.938Z,15.40
2024-01-06T22:08:19.901Z,17.10
2024-01-06T22:10:48.049Z,16.40
2024-01-06T22:13:16.089Z,18.90
2024-01-06T22:15:52.569Z,17.20
2024-01-06T22:18:19.896Z,19.60
2024-01-06T22:20:46.830Z,21.80
2024-01-06T22:23:13.752Z,20.50
2024-01-06T22:25:40.580Z,18.40
2024-01-06T22:28:11.494Z,18.40
2024-01-06T22:30:39.381Z,18.60
2024-01-06T22:33:07.357Z,18.70
2024-01-06T22:35:34.338Z,16.90
2024-01-06T22:38:01.273Z,21.50
2024-01-06T22:40:28.125Z,19.90
2024-01-06T22:42:55.096Z,21.30
2024-01-06T22:45:24.170Z,16.70
2024-01-06T22:47:51.354Z,15.30
2024-01-06T22:50:18.356Z,14.80
2024-01-06T22:52:45.145Z,16.90
2024-01-06T22:55:12.024Z,16.60
2024-01-06T22:57:39.050Z,17.20
2024-01-06T23:00:27.344Z,15.50
2024-01-06T23:02:55.400Z,13.40
2024-01-06T23:05:22.200Z,14.20
2024-01-06T23:07:49.205Z,14.70
2024-01-06T23:10:16.757Z,14.20
2024-01-06T23:12:43.768Z,15.20
2024-01-06T23:15:11.604Z,15.80
2024-01-06T23:17:38.555Z,16.70
2024-01-06T23:20:06.235Z,15.00
2024-01-06T23:22:34.801Z,15.40
2024-01-06T23:25:01.721Z,16.00
2024-01-06T23:27:29.002Z,16.70
2024-01-06T23:29:56.066Z,16.20
2024-01-06T23:32:23.078Z,16.30
2024-01-06T23:34:50.057Z,13.60
2024-01-06T23:37:17.138Z,18.10
2024-01-06T23:39:44.075Z,17.30
2024-01-06T23:42:11.413Z,16.30
2024-01-06T23:44:38.345Z,18.70
2024-01-06T23:47:05.183Z,16.70
2024-01-06T23:49:32.159Z,13.10
2024-01-06T23:51:59.158Z,18.40
2024-01-06T23:54:26.112Z,13.80
2024-01-06T23:56:53.017Z,16.10
2024-01-06T23:59:20.852Z,15.00
